Home > Products > Valid Products > TAF

000
FTUS45 KPIH 302100 AAA
TAFBYI
TAF AMD
KBYI 302109Z 3021/3118 27011KT P6SM SCT100 OVC200
     FM310100 22011KT P6SM VCSH BKN070
     FM311700 26015G25KT P6SM BKN150=



000
FTUS45 KPIH 302100 AAA
TAFIDA
TAF AMD
KIDA 302108Z 3021/3118 22011KT P6SM VCSH SCT070 BKN100
     FM310200 20011KT P6SM VCSH BKN070
     FM311700 21015G25KT P6SM BKN120=



000
FTUS45 KPIH 302100 AAA
TAFPIH
TAF AMD
KPIH 302103Z 3021/3118 25015G24KT P6SM VCSH SCT100 OVC200
     FM310200 24013G20KT P6SM VCSH BKN070
     FM311700 24020G30KT P6SM BKN120 BKN200=



000
FTUS45 KPIH 301700
TAFIDA
TAF
KIDA 301720Z 3018/3118 22015G25KT P6SM VCTS BKN120CB OVC200
     FM310200 20011KT P6SM VCSH BKN070
     FM311700 21015G25KT P6SM BKN120=



000
FTUS45 KPIH 301700
TAFBYI
TAF
KBYI 301720Z 3018/3118 26012G22KT P6SM BKN120
     FM302100 26014G24KT P6SM VCTS SCT100CB OVC200
     FM310200 22011KT P6SM VCSH BKN070
     FM311700 26015G25KT P6SM BKN150=



000
FTUS45 KPIH 301700
TAFPIH
TAF
KPIH 301720Z 3018/3118 23020G30KT P6SM SCT120 OVC200
     FM302100 23020G30KT P6SM VCTS SCT100CB OVC200
     FM310200 24013G20KT P6SM VCSH BKN070
     FM311700 24020G30KT P6SM BKN120 BKN200=



000
FTUS45 KPIH 301700
TAFSUN
TAF
KSUN 301720Z 3018/3118 16008KT P6SM VCTS SCT060 BKN100CB
     FM302000 23014G25KT P6SM VCTS SCT060CB BKN150
     FM310200 31007KT P6SM VCSH SCT050 BKN100=



000
FTUS45 KPIH 301200 AAA
TAFBYI
TAF AMD
KBYI 301244Z 3013/3112 21008KT P6SM SCT070
     FM301600 26012G22KT P6SM VCTS BKN120CB
     FM310200 22012KT P6SM VCSH BKN070=



000
FTUS45 KPIH 301200 AAA
TAFPIH
TAF AMD
KPIH 301243Z 3013/3112 22010KT P6SM SCT070
     FM301700 23020G30KT 6SM BLDU VCTS SCT120CB BKN200
     FM310200 24013G20KT P6SM VCSH BKN070=



000
FTUS45 KPIH 301200 AAA
TAFSUN
TAF AMD
KSUN 301242Z 3013/3112 32009KT P6SM VCTS SCT060 BKN100CB
     FM301800 16008KT P6SM VCTS SCT060 BKN100CB
     FM302000 23014G25KT P6SM SCT060
     FM310200 31007KT P6SM VCSH SCT050 BKN100=



000
FTUS45 KPIH 301100
TAFSUN
TAF
KSUN 301120Z 3012/3112 32009KT P6SM VCSH SCT060 BKN100
     FM301800 18008KT P6SM VCTS SCT060 BKN100CB
     FM302000 23014G25KT P6SM SCT060
     FM310200 31007KT P6SM VCSH SCT050 BKN100
      AMD LTD TO CLD VIS AND WIND TIL 301300=



000
FTUS45 KPIH 301100
TAFPIH
TAF
KPIH 301120Z 3012/3112 22007KT P6SM SCT070
     FM301700 23020G30KT 6SM BLDU SCT120 BKN200
     FM310200 24013G20KT P6SM VCSH BKN070=



000
FTUS45 KPIH 301100
TAFIDA
TAF
KIDA 301120Z 3012/3112 22010KT P6SM SCT070 BKN200
     FM301800 23020G30KT 6SM BLDU VCTS BKN120CB
     FM310200 20014KT P6SM VCSH BKN070=



000
FTUS45 KPIH 301100
TAFBYI
TAF
KBYI 301120Z 3012/3112 23008KT P6SM SCT070
     FM301600 26012G22KT P6SM BKN140
     FM310200 22012KT P6SM VCSH BKN070=



000
FTUS45 KPIH 300500
TAFBYI
TAF
KBYI 300520Z 3006/3106 17008KT P6SM VCSH FEW080 BKN110
     FM301400 25015G25KT P6SM BKN140
     FM302300 28011KT P6SM VCSH BKN070=



000
FTUS45 KPIH 300500
TAFIDA
TAF
KIDA 300520Z 3006/3106 20010KT P6SM VCSH SCT070 BKN100
     FM301100 22010KT P6SM SCT070 BKN200
     FM301500 23015G25KT P6SM BKN140
     FM302100 22020G30KT 6SM BLDU SCT070 BKN200
     FM310200 20014KT P6SM SCT070=



000
FTUS45 KPIH 300500
TAFPIH
TAF
KPIH 300520Z 3006/3106 19010KT P6SM VCSH FEW070 BKN100
     FM301000 20013G20KT P6SM SCT070 BKN200
     FM301400 23020G30KT 6SM BLDU SCT120 BKN200
     FM310100 24013G20KT P6SM VCSH BKN070=



000
FTUS45 KPIH 300500
TAFSUN
TAF
KSUN 300520Z 3006/3106 29011KT P6SM VCTS FEW060CB BKN100
     FM300800 32009KT P6SM VCSH SCT060 BKN100
     FM301500 18008KT P6SM SCT060 BKN200
     FM302000 23014G25KT P6SM SCT060
     FM310200 31007KT P6SM SCT050 BKN150
      AMD LTD TO CLD VIS AND WIND TIL 301300=



000
FTUS45 KPIH 292300
TAFBYI
TAF
KBYI 292323Z 3000/3024 VRB05KT P6SM VCTS FEW070CB SCT110
     FM300200 17008KT P6SM VCSH FEW080 BKN110
     FM301400 23015G25KT P6SM BKN140=



000
FTUS45 KPIH 292300
TAFSUN
TAF
KSUN 292323Z 3000/3024 23011KT P6SM SCT100
     FM300300 29011KT P6SM VCTS FEW060CB BKN100
     FM300900 32009KT P6SM VCSH SCT060 BKN100
     FM301500 18008KT P6SM SCT060 BKN200
     FM302000 24014G25KT P6SM SCT060
      AMD LTD TO CLD VIS AND WIND 3005/3013=



000
FTUS45 KPIH 292300
TAFPIH
TAF
KPIH 292323Z 3000/3024 25009KT P6SM VCTS FEW070CB SCT100
     FM300300 19010KT P6SM VCSH FEW070 BKN100
     FM301000 20013G20KT P6SM SCT070 BKN200
     FM301400 23020G30KT P6SM SCT120 BKN200=



000
FTUS45 KPIH 292300
TAFIDA
TAF
KIDA 292323Z 3000/3024 22012G18KT P6SM FEW100
     FM300200 20010KT P6SM VCSH SCT070 BKN100
     FM301100 22010KT P6SM SCT070 BKN200
     FM301500 23015G25KT P6SM BKN140
     FM302100 22020G30KT P6SM SCT070 BKN200=



000
FTUS45 KPIH 292100 AAA
TAFIDA
TAF AMD
KIDA 292135Z 2922/3018 22012KT P6SM FEW100
     FM300200 20010KT P6SM VCSH SCT070 BKN100
     FM301500 23015G25KT P6SM BKN140=



000
FTUS45 KPIH 292100 AAA
TAFPIH
TAF AMD
KPIH 292130Z 2922/3018 25011KT P6SM FEW100
     FM300200 19010KT P6SM VCSH FEW070 BKN100
     FM301400 23020G30KT P6SM BKN140=



000
FTUS45 KPIH 291700
TAFIDA
TAF
KIDA 291739Z 2918/3018 22011KT P6SM SCT100
     FM292000 22012G22KT P6SM FEW100
     FM300200 19010KT P6SM VCSH SCT070 BKN100
     FM301500 23015G25KT P6SM BKN140=



000
FTUS45 KPIH 291700
TAFPIH
TAF
KPIH 291739Z 2918/3018 VRB05KT P6SM SCT120
     FM291900 26010G20KT P6SM FEW100
     FM300200 19010KT P6SM VCSH FEW070 BKN100
     FM301400 23020G30KT P6SM BKN140=



000
FTUS45 KPIH 291700
TAFBYI
TAF
KBYI 291739Z 2918/3018 VRB05KT P6SM SCT110
     FM300200 17008KT P6SM VCSH FEW080 BKN110
     FM301400 23015G25KT P6SM BKN140=



000
FTUS45 KPIH 291700
TAFSUN
TAF
KSUN 291739Z 2918/3018 15007KT P6SM SCT100
     FM292200 21011KT P6SM SCT100
     FM300200 27011KT P6SM VCTS FEW060 BKN080CB
     FM300700 32010G15KT P6SM VCSH SCT060 BKN080=



000
FTUS45 KPIH 291100
TAFPIH
TAF
KPIH 291120Z 2912/3012 VRB05KT P6SM SCT120
     FM291900 26010G20KT P6SM FEW100
     FM300200 19010KT P6SM BKN100=



000
FTUS45 KPIH 291100
TAFSUN
TAF
KSUN 291120Z 2912/3012 32010KT P6SM SCT100
     FM291800 15007KT P6SM SCT100
     FM292200 21011KT P6SM SCT100
     FM300200 31008KT P6SM VCTS BKN090CB
      AMD LTD TO CLD VIS AND WIND TIL 291300=



000
FTUS45 KPIH 291100
TAFBYI
TAF
KBYI 291120Z 2912/3012 VRB05KT P6SM SCT100
     FM300200 17008KT P6SM BKN100=



000
FTUS45 KPIH 291100
TAFIDA
TAF
KIDA 291120Z 2912/3012 22007KT P6SM SCT100
     FM291900 22012G22KT P6SM FEW100
     FM300200 21008KT P6SM BKN070=



000
FTUS45 KPIH 290500
TAFIDA
TAF
KIDA 290520Z 2906/3006 20007KT P6SM SCT070
     FM291900 22010G15KT P6SM FEW070
     FM300200 20008KT P6SM BKN070=



000
FTUS45 KPIH 290500
TAFBYI
TAF
KBYI 290520Z 2906/3006 19005KT P6SM FEW070
     FM300200 17008KT P6SM BKN070=



000
FTUS45 KPIH 290500
TAFSUN
TAF
KSUN 290520Z 2906/3006 31011KT 6SM FU SCT060
     FM291600 13008KT P6SM SCT060
     FM292200 21011KT P6SM SCT060
     FM300200 31008KT P6SM BKN060
      AMD LTD TO CLD VIS AND WIND TIL 291300=



000
FTUS45 KPIH 290500
TAFPIH
TAF
KPIH 290520Z 2906/3006 20009KT P6SM SCT070
     FM291900 26012G20KT P6SM FEW070
     FM300200 19010KT P6SM BKN070=



000
FTUS45 KPIH 290100 AAA
TAFSUN
TAF AMD
KSUN 290154Z 2902/2924 24008KT 5SM FU FEW060
     FM290300 31011KT 5SM FU SCT060
     FM290700 31012KT P6SM FEW060
     FM291600 13008KT P6SM SCT060
     FM292200 21011KT P6SM SCT060
      AMD LTD TO CLD VIS AND WIND 2905/2913=



000
FTUS45 KPIH 282300
TAFSUN
TAF
KSUN 282320Z 2900/2924 21011KT P6SM FEW060
     FM290300 31011KT P6SM SCT060
     FM291700 13008KT P6SM SCT060
     FM292200 21011KT P6SM SCT060
      AMD LTD TO CLD VIS AND WIND 2905/2913=



000
FTUS45 KPIH 282300
TAFIDA
TAF
KIDA 282320Z 2900/2924 20010G15KT P6SM SCT070
     FM290200 20007KT P6SM SCT070
     FM291900 22010G15KT P6SM FEW070=



000
FTUS45 KPIH 282300
TAFBYI
TAF
KBYI 282320Z 2900/2924 27010KT P6SM SCT070
     FM290200 19005KT P6SM FEW070=



000
FTUS45 KPIH 282300
TAFPIH
TAF
KPIH 282320Z 2900/2924 26012G20KT P6SM SCT070
     FM290200 20009KT P6SM SCT070
     FM291900 26012G20KT P6SM FEW070=



000
FTUS45 KPIH 281700
TAFSUN
TAF
KSUN 281733Z 2818/2918 14008KT P6SM FEW060
     FM290300 31010KT P6SM SKC=



000
FTUS45 KPIH 281700
TAFPIH
TAF
KPIH 281733Z 2818/2918 19005KT P6SM SKC
     FM282100 25012G20KT P6SM FEW070
     FM290200 20009KT P6SM SKC=



000
FTUS45 KPIH 281700
TAFBYI
TAF
KBYI 281733Z 2818/2918 17006KT P6SM SKC
     FM282000 27010KT P6SM FEW070
     FM290200 19005KT P6SM SKC=



000
FTUS45 KPIH 281700
TAFIDA
TAF
KIDA 281733Z 2818/2918 19006KT P6SM SKC
     FM282100 22010G15KT P6SM FEW070
     FM290200 20007KT P6SM SKC=



000
FTUS45 KPIH 281100
TAFBYI
TAF
KBYI 281120Z 2812/2912 19006KT P6SM SKC
     FM281900 27010KT P6SM FEW070
     FM290200 19005KT P6SM SKC=



000
FTUS45 KPIH 281100
TAFPIH
TAF
KPIH 281120Z 2812/2912 VRB05KT P6SM SKC
     FM281900 27012G20KT P6SM FEW070
     FM290200 20009KT P6SM SKC=



000
FTUS45 KPIH 281100
TAFIDA
TAF
KIDA 281120Z 2812/2912 VRB06KT P6SM SKC
     FM281900 22010G15KT P6SM FEW070
     FM290200 20007KT P6SM SKC=



000
FTUS45 KPIH 281100
TAFSUN
TAF
KSUN 281120Z 2812/2912 32011KT P6SM SKC
     FM281700 14008KT P6SM FEW060
     FM290300 31010KT P6SM SKC
      AMD LTD TO CLD VIS AND WIND TIL 281300=



000
FTUS45 KPIH 280500
TAFIDA
TAF
KIDA 280520Z 2806/2906 18006KT P6SM SKC
     FM281900 22010G15KT P6SM FEW070
     FM290200 20007KT P6SM SKC=



000
FTUS45 KPIH 280500
TAFBYI
TAF
KBYI 280520Z 2806/2906 19006KT P6SM SKC
     FM281900 27010KT P6SM FEW070
     FM290200 19007KT P6SM SKC=



000
FTUS45 KPIH 280500
TAFPIH
TAF
KPIH 280520Z 2806/2906 19006KT P6SM SKC
     FM281900 27012G20KT P6SM FEW070
     FM290200 20009KT P6SM SKC=



000
FTUS45 KPIH 280500
TAFSUN
TAF
KSUN 280520Z 2806/2906 32010KT P6SM SKC
     FM281700 14008KT P6SM FEW060
     FM290300 31010KT P6SM SKC
      AMD LTD TO CLD VIS AND WIND TIL 281300=



000
FTUS45 KPIH 272300
TAFBYI
TAF
KBYI 272321Z 2800/2824 29007KT P6SM SCT090
     FM280400 19006KT P6SM SKC
     FM281900 27010KT P6SM FEW070=



000
FTUS45 KPIH 272300
TAFSUN
TAF
KSUN 272321Z 2800/2824 25008KT P6SM BKN080
     FM280600 32010KT P6SM SKC
     FM281700 14008KT P6SM FEW060
      AMD LTD TO CLD VIS AND WIND 2805/2813=



000
FTUS45 KPIH 272300
TAFPIH
TAF
KPIH 272321Z 2800/2824 26011KT P6SM SCT070
     FM280300 19006KT P6SM SKC
     FM281900 27012G20KT P6SM FEW070=



000
FTUS45 KPIH 272300
TAFIDA
TAF
KIDA 272321Z 2800/2824 22010KT P6SM FEW080
     FM280300 18006KT P6SM SKC
     FM281900 22010G15KT P6SM FEW070=



    US Dept of Commerce
    National Oceanic and Atmospheric Administration
    National Weather Service
    1325 East West Highway
    Silver Spring, MD 20910
    Page Author: NWS Internet Services Team
Disclaimer
Information Quality
Credits
Glossary
Privacy Policy
Freedom of Information Act (FOIA)
About Us
Career Opportunities